sensor_id;sensor_type;location;lat;lon;timestamp;pressure;altitude;pressure_sealevel;temperature;humidity
70198;BME280;57582;-34.876;138.628;2022-09-13T00:00:52;101898;;;16.03;52.01
70198;BME280;57582;-34.876;138.628;2022-09-13T00:03:52;101900;;;15.83;52.54
70198;BME280;57582;-34.876;138.628;2022-09-13T00:06:52;101894;;;16.06;52.98
70198;BME280;57582;-34.876;138.628;2022-09-13T00:09:52;101885;;;16.29;52.71
70198;BME280;57582;-34.876;138.628;2022-09-13T00:12:52;101880;;;16.52;52.31
70198;BME280;57582;-34.876;138.628;2022-09-13T00:15:52;101879;;;16.53;51.33
70198;BME280;57582;-34.876;138.628;2022-09-13T00:18:52;101876;;;16.69;50.76
70198;BME280;57582;-34.876;138.628;2022-09-13T00:21:52;101866;;;16.49;51.63
70198;BME280;57582;-34.876;138.628;2022-09-13T00:24:52;101863;;;16.32;52.71
70198;BME280;57582;-34.876;138.628;2022-09-13T00:27:52;101855;;;16.50;53.22
70198;BME280;57582;-34.876;138.628;2022-09-13T00:30:52;101850;;;16.52;52.21
70198;BME280;57582;-34.876;138.628;2022-09-13T00:33:52;101856;;;16.51;51.89
70198;BME280;57582;-34.876;138.628;2022-09-13T00:36:52;101866;;;16.78;53.30
70198;BME280;57582;-34.876;138.628;2022-09-13T00:39:52;101884;;;16.76;51.88
70198;BME280;57582;-34.876;138.628;2022-09-13T00:42:52;101884;;;16.87;51.74
70198;BME280;57582;-34.876;138.628;2022-09-13T00:45:52;101866;;;17.25;51.29
70198;BME280;57582;-34.876;138.628;2022-09-13T00:48:54;101847;;;17.54;50.64
70198;BME280;57582;-34.876;138.628;2022-09-13T00:51:54;101863;;;17.71;49.25
70198;BME280;57582;-34.876;138.628;2022-09-13T00:54:54;101856;;;17.77;50.37
70198;BME280;57582;-34.876;138.628;2022-09-13T00:57:52;101861;;;18.04;50.12
70198;BME280;57582;-34.876;138.628;2022-09-13T01:00:52;101859;;;18.26;49.94
70198;BME280;57582;-34.876;138.628;2022-09-13T01:03:52;101861;;;18.45;49.20
70198;BME280;57582;-34.876;138.628;2022-09-13T01:06:52;101851;;;18.49;47.99
70198;BME280;57582;-34.876;138.628;2022-09-13T01:09:52;101852;;;18.62;47.61
70198;BME280;57582;-34.876;138.628;2022-09-13T01:15:52;101857;;;18.68;47.09
70198;BME280;57582;-34.876;138.628;2022-09-13T01:18:52;101849;;;18.50;47.76
70198;BME280;57582;-34.876;138.628;2022-09-13T01:22:01;101848;;;18.59;48.88
70198;BME280;57582;-34.876;138.628;2022-09-13T01:42:57;101799;;;19.12;48.14
70198;BME280;57582;-34.876;138.628;2022-09-13T01:46:03;101793;;;19.09;48.20
70198;BME280;57582;-34.876;138.628;2022-09-13T01:51:56;101781;;;19.31;47.56
70198;BME280;57582;-34.876;138.628;2022-09-13T01:57:55;101778;;;18.96;47.67
70198;BME280;57582;-34.876;138.628;2022-09-13T02:00:55;101783;;;18.37;49.19
70198;BME280;57582;-34.876;138.628;2022-09-13T02:07:01;101768;;;18.92;49.01
70198;BME280;57582;-34.876;138.628;2022-09-13T02:09:55;101765;;;19.01;48.14
70198;BME280;57582;-34.876;138.628;2022-09-13T02:12:52;101756;;;19.37;47.36
70198;BME280;57582;-34.876;138.628;2022-09-13T02:15:53;101750;;;18.75;47.50
70198;BME280;57582;-34.876;138.628;2022-09-13T02:18:53;101745;;;18.96;47.25
70198;BME280;57582;-34.876;138.628;2022-09-13T02:21:55;101740;;;19.35;47.68
70198;BME280;57582;-34.876;138.628;2022-09-13T02:24:53;101727;;;19.60;46.83
70198;BME280;57582;-34.876;138.628;2022-09-13T02:27:53;101735;;;19.88;47.90
70198;BME280;57582;-34.876;138.628;2022-09-13T02:30:52;101722;;;19.84;45.29
70198;BME280;57582;-34.876;138.628;2022-09-13T02:33:56;101715;;;19.73;45.59
70198;BME280;57582;-34.876;138.628;2022-09-13T02:36:52;101712;;;19.81;46.93
70198;BME280;57582;-34.876;138.628;2022-09-13T02:39:54;101705;;;20.03;45.81
70198;BME280;57582;-34.876;138.628;2022-09-13T02:42:54;101704;;;20.09;46.11
70198;BME280;57582;-34.876;138.628;2022-09-13T02:45:57;101696;;;20.11;45.47
70198;BME280;57582;-34.876;138.628;2022-09-13T03:00:52;101676;;;20.05;45.02
70198;BME280;57582;-34.876;138.628;2022-09-13T03:03:52;101671;;;20.25;45.22
70198;BME280;57582;-34.876;138.628;2022-09-13T03:06:52;101671;;;19.59;46.82
70198;BME280;57582;-34.876;138.628;2022-09-13T03:09:53;101670;;;19.33;46.68
70198;BME280;57582;-34.876;138.628;2022-09-13T03:16:03;101659;;;19.48;47.47
70198;BME280;57582;-34.876;138.628;2022-09-13T03:21:57;101655;;;19.91;46.14
70198;BME280;57582;-34.876;138.628;2022-09-13T03:25:12;101646;;;20.00;45.72
70198;BME280;57582;-34.876;138.628;2022-09-13T03:30:54;101643;;;20.23;44.96
70198;BME280;57582;-34.876;138.628;2022-09-13T03:36:57;101628;;;20.55;44.25
70198;BME280;57582;-34.876;138.628;2022-09-13T03:40:09;101625;;;20.47;44.25
70198;BME280;57582;-34.876;138.628;2022-09-13T03:42:54;101623;;;19.74;45.63
70198;BME280;57582;-34.876;138.628;2022-09-13T03:45:54;101627;;;19.59;45.92
70198;BME280;57582;-34.876;138.628;2022-09-13T03:48:52;101620;;;19.72;45.71
70198;BME280;57582;-34.876;138.628;2022-09-13T03:51:53;101622;;;19.95;45.70
70198;BME280;57582;-34.876;138.628;2022-09-13T03:54:52;101622;;;20.02;46.85
70198;BME280;57582;-34.876;138.628;2022-09-13T03:57:53;101619;;;20.21;46.17
70198;BME280;57582;-34.876;138.628;2022-09-13T04:00:52;101620;;;20.31;45.56
70198;BME280;57582;-34.876;138.628;2022-09-13T04:03:52;101616;;;20.46;45.68
70198;BME280;57582;-34.876;138.628;2022-09-13T04:06:52;101609;;;20.39;46.33
70198;BME280;57582;-34.876;138.628;2022-09-13T04:09:53;101596;;;20.46;46.11
70198;BME280;57582;-34.876;138.628;2022-09-13T04:12:54;101598;;;20.60;45.07
70198;BME280;57582;-34.876;138.628;2022-09-13T04:15:52;101603;;;20.63;44.98
70198;BME280;57582;-34.876;138.628;2022-09-13T04:18:52;101599;;;20.52;45.90
70198;BME280;57582;-34.876;138.628;2022-09-13T04:21:53;101603;;;20.51;44.22
70198;BME280;57582;-34.876;138.628;2022-09-13T04:24:52;101606;;;20.34;44.80
70198;BME280;57582;-34.876;138.628;2022-09-13T04:27:54;101590;;;20.27;44.78
70198;BME280;57582;-34.876;138.628;2022-09-13T04:30:52;101589;;;20.32;46.46
70198;BME280;57582;-34.876;138.628;2022-09-13T04:33:52;101582;;;20.24;46.34
70198;BME280;57582;-34.876;138.628;2022-09-13T04:36:52;101578;;;20.22;46.01
70198;BME280;57582;-34.876;138.628;2022-09-13T04:39:53;101577;;;20.37;45.99
70198;BME280;57582;-34.876;138.628;2022-09-13T04:42:52;101573;;;20.38;46.07
70198;BME280;57582;-34.876;138.628;2022-09-13T04:45:53;101564;;;20.46;46.74
70198;BME280;57582;-34.876;138.628;2022-09-13T04:48:52;101571;;;20.50;46.20
70198;BME280;57582;-34.876;138.628;2022-09-13T04:51:52;101555;;;20.65;44.64
70198;BME280;57582;-34.876;138.628;2022-09-13T04:54:52;101556;;;20.77;46.08
70198;BME280;57582;-34.876;138.628;2022-09-13T04:57:53;101544;;;21.16;46.06
70198;BME280;57582;-34.876;138.628;2022-09-13T05:00:52;101541;;;21.21;44.38
70198;BME280;57582;-34.876;138.628;2022-09-13T05:03:52;101532;;;21.43;43.73
70198;BME280;57582;-34.876;138.628;2022-09-13T05:06:52;101529;;;21.53;43.14
70198;BME280;57582;-34.876;138.628;2022-09-13T05:09:53;101524;;;21.35;43.05
70198;BME280;57582;-34.876;138.628;2022-09-13T05:12:52;101520;;;20.85;43.74
70198;BME280;57582;-34.876;138.628;2022-09-13T05:15:55;101508;;;20.70;44.32
70198;BME280;57582;-34.876;138.628;2022-09-13T05:18:52;101512;;;20.66;44.17
70198;BME280;57582;-34.876;138.628;2022-09-13T05:21:53;101509;;;20.87;44.75
70198;BME280;57582;-34.876;138.628;2022-09-13T05:24:52;101499;;;21.15;43.97
70198;BME280;57582;-34.876;138.628;2022-09-13T05:27:52;101493;;;21.23;43.71
70198;BME280;57582;-34.876;138.628;2022-09-13T05:33:56;101488;;;20.89;43.80
70198;BME280;57582;-34.876;138.628;2022-09-13T05:36:52;101485;;;20.85;45.29
70198;BME280;57582;-34.876;138.628;2022-09-13T05:39:55;101487;;;20.98;45.30
70198;BME280;57582;-34.876;138.628;2022-09-13T05:42:52;101483;;;21.04;44.71
70198;BME280;57582;-34.876;138.628;2022-09-13T05:46:11;101480;;;20.68;45.01
70198;BME280;57582;-34.876;138.628;2022-09-13T05:48:52;101469;;;20.79;44.74
70198;BME280;57582;-34.876;138.628;2022-09-13T05:51:52;101468;;;20.77;45.55
70198;BME280;57582;-34.876;138.628;2022-09-13T05:54:52;101456;;;21.16;45.16
70198;BME280;57582;-34.876;138.628;2022-09-13T05:57:52;101452;;;21.18;44.11
70198;BME280;57582;-34.876;138.628;2022-09-13T06:00:53;101451;;;21.29;45.66
70198;BME280;57582;-34.876;138.628;2022-09-13T06:03:53;101445;;;21.65;44.07
70198;BME280;57582;-34.876;138.628;2022-09-13T06:06:52;101436;;;21.88;43.29
70198;BME280;57582;-34.876;138.628;2022-09-13T06:09:53;101437;;;21.03;45.07
70198;BME280;57582;-34.876;138.628;2022-09-13T06:12:52;101437;;;20.95;45.27
70198;BME280;57582;-34.876;138.628;2022-09-13T06:15:53;101428;;;21.02;46.31
70198;BME280;57582;-34.876;138.628;2022-09-13T06:18:52;101438;;;20.97;46.37
70198;BME280;57582;-34.876;138.628;2022-09-13T06:21:53;101429;;;20.96;45.49
70198;BME280;57582;-34.876;138.628;2022-09-13T06:24:52;101426;;;20.40;46.81
70198;BME280;57582;-34.876;138.628;2022-09-13T06:27:52;101426;;;20.42;47.05
70198;BME280;57582;-34.876;138.628;2022-09-13T06:30:58;101422;;;20.48;47.27
70198;BME280;57582;-34.876;138.628;2022-09-13T06:33:55;101417;;;20.32;47.42
70198;BME280;57582;-34.876;138.628;2022-09-13T06:36:52;101414;;;20.12;48.14
70198;BME280;57582;-34.876;138.628;2022-09-13T06:39:53;101411;;;20.08;47.20
70198;BME280;57582;-34.876;138.628;2022-09-13T06:42:52;101403;;;19.87;46.79
70198;BME280;57582;-34.876;138.628;2022-09-13T06:45:53;101402;;;19.88;46.98
70198;BME280;57582;-34.876;138.628;2022-09-13T06:48:52;101397;;;20.06;46.87
70198;BME280;57582;-34.876;138.628;2022-09-13T06:51:53;101396;;;20.22;47.30
70198;BME280;57582;-34.876;138.628;2022-09-13T06:54:52;101393;;;20.24;46.85
70198;BME280;57582;-34.876;138.628;2022-09-13T06:57:53;101391;;;20.17;46.95
70198;BME280;57582;-34.876;138.628;2022-09-13T07:00:52;101390;;;20.07;47.22
70198;BME280;57582;-34.876;138.628;2022-09-13T07:03:54;101389;;;19.93;47.93
70198;BME280;57582;-34.876;138.628;2022-09-13T07:06:52;101400;;;20.10;48.44
70198;BME280;57582;-34.876;138.628;2022-09-13T07:09:53;101390;;;20.25;48.25
70198;BME280;57582;-34.876;138.628;2022-09-13T07:12:52;101381;;;20.15;47.57
70198;BME280;57582;-34.876;138.628;2022-09-13T07:15:53;101378;;;20.08;48.11
70198;BME280;57582;-34.876;138.628;2022-09-13T07:18:53;101378;;;20.07;50.73
70198;BME280;57582;-34.876;138.628;2022-09-13T07:21:53;101373;;;20.13;48.09
70198;BME280;57582;-34.876;138.628;2022-09-13T07:24:52;101375;;;20.19;48.12
70198;BME280;57582;-34.876;138.628;2022-09-13T07:27:53;101378;;;20.21;47.97
70198;BME280;57582;-34.876;138.628;2022-09-13T07:30:52;101373;;;20.16;47.69
70198;BME280;57582;-34.876;138.628;2022-09-13T07:33:55;101368;;;20.30;47.95
70198;BME280;57582;-34.876;138.628;2022-09-13T07:36:52;101372;;;20.29;47.01
70198;BME280;57582;-34.876;138.628;2022-09-13T07:39:53;101373;;;20.40;46.85
70198;BME280;57582;-34.876;138.628;2022-09-13T07:42:52;101368;;;20.33;46.74
70198;BME280;57582;-34.876;138.628;2022-09-13T07:45:57;101365;;;20.30;46.68
70198;BME280;57582;-34.876;138.628;2022-09-13T07:48:53;101367;;;20.03;46.95
70198;BME280;57582;-34.876;138.628;2022-09-13T07:51:53;101372;;;20.06;47.24
70198;BME280;57582;-34.876;138.628;2022-09-13T07:54:52;101372;;;20.22;47.35
70198;BME280;57582;-34.876;138.628;2022-09-13T07:57:53;101369;;;20.05;47.54
70198;BME280;57582;-34.876;138.628;2022-09-13T08:00:52;101364;;;19.95;47.24
70198;BME280;57582;-34.876;138.628;2022-09-13T08:03:55;101365;;;19.87;47.77
70198;BME280;57582;-34.876;138.628;2022-09-13T08:06:52;101359;;;19.61;47.91
70198;BME280;57582;-34.876;138.628;2022-09-13T08:09:53;101361;;;19.60;48.61
70198;BME280;57582;-34.876;138.628;2022-09-13T08:12:52;101359;;;19.57;48.09
70198;BME280;57582;-34.876;138.628;2022-09-13T08:15:53;101360;;;19.56;48.39
70198;BME280;57582;-34.876;138.628;2022-09-13T08:18:53;101364;;;19.69;48.38
70198;BME280;57582;-34.876;138.628;2022-09-13T08:21:53;101352;;;19.45;48.60
70198;BME280;57582;-34.876;138.628;2022-09-13T08:24:52;101357;;;19.23;48.75
70198;BME280;57582;-34.876;138.628;2022-09-13T08:27:53;101354;;;19.20;49.06
70198;BME280;57582;-34.876;138.628;2022-09-13T08:30:52;101357;;;19.11;49.53
70198;BME280;57582;-34.876;138.628;2022-09-13T08:33:53;101358;;;18.99;50.02
70198;BME280;57582;-34.876;138.628;2022-09-13T08:36:52;101363;;;18.89;50.30
70198;BME280;57582;-34.876;138.628;2022-09-13T08:39:53;101362;;;18.84;50.55
70198;BME280;57582;-34.876;138.628;2022-09-13T08:42:58;101360;;;18.68;50.85
70198;BME280;57582;-34.876;138.628;2022-09-13T08:45:59;101360;;;18.58;51.23
70198;BME280;57582;-34.876;138.628;2022-09-13T08:48:54;101362;;;18.47;51.51
70198;BME280;57582;-34.876;138.628;2022-09-13T08:51:55;101350;;;18.42;51.79
70198;BME280;57582;-34.876;138.628;2022-09-13T08:54:52;101354;;;18.38;51.87
70198;BME280;57582;-34.876;138.628;2022-09-13T09:00:56;101360;;;18.22;51.74
70198;BME280;57582;-34.876;138.628;2022-09-13T09:04:00;101361;;;18.17;51.67
70198;BME280;57582;-34.876;138.628;2022-09-13T09:07:02;101359;;;18.15;51.62
70198;BME280;57582;-34.876;138.628;2022-09-13T09:09:54;101364;;;18.07;51.83
70198;BME280;57582;-34.876;138.628;2022-09-13T09:12:56;101368;;;17.98;51.78
70198;BME280;57582;-34.876;138.628;2022-09-13T09:15:55;101372;;;17.87;51.93
70198;BME280;57582;-34.876;138.628;2022-09-13T09:18:52;101370;;;17.91;51.60
70198;BME280;57582;-34.876;138.628;2022-09-13T09:21:53;101377;;;17.87;51.53
70198;BME280;57582;-34.876;138.628;2022-09-13T09:24:53;101375;;;17.89;51.69
70198;BME280;57582;-34.876;138.628;2022-09-13T09:27:54;101379;;;17.81;51.82
70198;BME280;57582;-34.876;138.628;2022-09-13T09:30:58;101380;;;17.72;52.00
70198;BME280;57582;-34.876;138.628;2022-09-13T09:39:57;101378;;;17.53;52.45
70198;BME280;57582;-34.876;138.628;2022-09-13T09:42:52;101378;;;17.51;52.85
70198;BME280;57582;-34.876;138.628;2022-09-13T09:45:53;101367;;;17.42;52.60
70198;BME280;57582;-34.876;138.628;2022-09-13T09:48:58;101352;;;17.36;52.83
70198;BME280;57582;-34.876;138.628;2022-09-13T09:51:53;101326;;;17.20;52.80
70198;BME280;57582;-34.876;138.628;2022-09-13T09:54:53;101346;;;17.31;52.64
70198;BME280;57582;-34.876;138.628;2022-09-13T09:57:54;101341;;;17.29;52.80
70198;BME280;57582;-34.876;138.628;2022-09-13T10:00:55;101338;;;17.28;52.38
70198;BME280;57582;-34.876;138.628;2022-09-13T10:07:08;101332;;;17.26;52.45
70198;BME280;57582;-34.876;138.628;2022-09-13T10:10:25;101328;;;17.21;52.29
70198;BME280;57582;-34.876;138.628;2022-09-13T10:12:53;101322;;;17.18;52.20
70198;BME280;57582;-34.876;138.628;2022-09-13T10:18:53;101331;;;17.18;51.94
70198;BME280;57582;-34.876;138.628;2022-09-13T10:22:01;101348;;;17.17;51.98
70198;BME280;57582;-34.876;138.628;2022-09-13T10:24:53;101351;;;17.16;52.02
70198;BME280;57582;-34.876;138.628;2022-09-13T10:27:54;101366;;;17.18;51.92
70198;BME280;57582;-34.876;138.628;2022-09-13T10:30:55;101362;;;17.12;52.05
70198;BME280;57582;-34.876;138.628;2022-09-13T10:33:58;101364;;;17.07;51.97
70198;BME280;57582;-34.876;138.628;2022-09-13T10:39:55;101365;;;17.06;51.84
70198;BME280;57582;-34.876;138.628;2022-09-13T10:42:54;101370;;;16.98;51.71
70198;BME280;57582;-34.876;138.628;2022-09-13T10:45:53;101377;;;16.97;51.67
70198;BME280;57582;-34.876;138.628;2022-09-13T10:48:53;101383;;;16.96;51.78
70198;BME280;57582;-34.876;138.628;2022-09-13T10:51:53;101383;;;16.94;52.07
70198;BME280;57582;-34.876;138.628;2022-09-13T10:54:53;101385;;;16.85;52.11
70198;BME280;57582;-34.876;138.628;2022-09-13T10:57:54;101379;;;16.87;52.04
70198;BME280;57582;-34.876;138.628;2022-09-13T11:07:12;101373;;;16.56;52.82
70198;BME280;57582;-34.876;138.628;2022-09-13T11:09:56;101381;;;16.52;52.99
70198;BME280;57582;-34.876;138.628;2022-09-13T11:15:56;101384;;;16.44;52.66
70198;BME280;57582;-34.876;138.628;2022-09-13T11:27:58;101378;;;16.28;52.36
70198;BME280;57582;-34.876;138.628;2022-09-13T11:33:59;101366;;;16.24;51.97
70198;BME280;57582;-34.876;138.628;2022-09-13T11:45:58;101345;;;16.08;51.82
70198;BME280;57582;-34.876;138.628;2022-09-13T11:57:56;101345;;;15.97;51.61
70198;BME280;57582;-34.876;138.628;2022-09-13T12:00:56;101357;;;15.96;51.51
70198;BME280;57582;-34.876;138.628;2022-09-13T12:03:58;101355;;;15.91;51.51
70198;BME280;57582;-34.876;138.628;2022-09-13T12:06:54;101346;;;15.89;51.39
70198;BME280;57582;-34.876;138.628;2022-09-13T12:09:57;101350;;;15.88;51.46
70198;BME280;57582;-34.876;138.628;2022-09-13T12:12:53;101347;;;15.83;51.37
70198;BME280;57582;-34.876;138.628;2022-09-13T12:16:02;101352;;;15.78;51.75
70198;BME280;57582;-34.876;138.628;2022-09-13T12:18:54;101347;;;15.77;51.91
70198;BME280;57582;-34.876;138.628;2022-09-13T12:21:55;101351;;;15.73;51.91
70198;BME280;57582;-34.876;138.628;2022-09-13T12:24:54;101354;;;15.72;51.97
70198;BME280;57582;-34.876;138.628;2022-09-13T12:27:56;101358;;;15.69;51.81
70198;BME280;57582;-34.876;138.628;2022-09-13T12:30:55;101361;;;15.69;51.88
70198;BME280;57582;-34.876;138.628;2022-09-13T12:33:54;101358;;;15.67;51.93
70198;BME280;57582;-34.876;138.628;2022-09-13T12:43:03;101351;;;15.55;52.31
70198;BME280;57582;-34.876;138.628;2022-09-13T12:48:57;101351;;;15.57;52.23
70198;BME280;57582;-34.876;138.628;2022-09-13T12:58:02;101340;;;15.50;52.32
70198;BME280;57582;-34.876;138.628;2022-09-13T13:03:56;101327;;;15.44;52.32
70198;BME280;57582;-34.876;138.628;2022-09-13T13:06:55;101330;;;15.46;52.41
70198;BME280;57582;-34.876;138.628;2022-09-13T13:09:54;101319;;;15.44;52.44
70198;BME280;57582;-34.876;138.628;2022-09-13T13:12:54;101322;;;15.37;52.73
70198;BME280;57582;-34.876;138.628;2022-09-13T13:15:55;101315;;;15.38;52.38
70198;BME280;57582;-34.876;138.628;2022-09-13T13:18:55;101306;;;15.37;52.52
70198;BME280;57582;-34.876;138.628;2022-09-13T13:21:54;101300;;;15.39;52.51
70198;BME280;57582;-34.876;138.628;2022-09-13T13:24:54;101300;;;15.35;52.48
70198;BME280;57582;-34.876;138.628;2022-09-13T13:27:55;101301;;;15.34;52.51
70198;BME280;57582;-34.876;138.628;2022-09-13T13:30:54;101291;;;15.35;52.73
70198;BME280;57582;-34.876;138.628;2022-09-13T13:36:56;101285;;;15.35;52.53
70198;BME280;57582;-34.876;138.628;2022-09-13T13:43:13;101285;;;15.42;52.25
70198;BME280;57582;-34.876;138.628;2022-09-13T13:45:56;101286;;;15.47;52.27
70198;BME280;57582;-34.876;138.628;2022-09-13T13:48:54;101281;;;15.44;52.31
70198;BME280;57582;-34.876;138.628;2022-09-13T14:00:54;101268;;;15.52;52.29
70198;BME280;57582;-34.876;138.628;2022-09-13T14:09:58;101260;;;15.54;52.35
70198;BME280;57582;-34.876;138.628;2022-09-13T14:13:32;101258;;;15.58;52.36
70198;BME280;57582;-34.876;138.628;2022-09-13T14:16:01;101255;;;15.51;52.61
70198;BME280;57582;-34.876;138.628;2022-09-13T14:19:04;101249;;;15.51;52.58
70198;BME280;57582;-34.876;138.628;2022-09-13T14:24:54;101246;;;15.55;52.69
70198;BME280;57582;-34.876;138.628;2022-09-13T14:27:55;101245;;;15.60;52.48
70198;BME280;57582;-34.876;138.628;2022-09-13T14:30:54;101241;;;15.64;52.40
70198;BME280;57582;-34.876;138.628;2022-09-13T14:33:54;101236;;;15.69;52.38
70198;BME280;57582;-34.876;138.628;2022-09-13T14:36:54;101228;;;15.67;52.45
70198;BME280;57582;-34.876;138.628;2022-09-13T14:39:56;101219;;;15.80;52.38
70198;BME280;57582;-34.876;138.628;2022-09-13T14:42:53;101220;;;15.92;51.80
70198;BME280;57582;-34.876;138.628;2022-09-13T14:48:54;101210;;;16.07;51.41
70198;BME280;57582;-34.876;138.628;2022-09-13T14:51:55;101208;;;16.14;51.29
70198;BME280;57582;-34.876;138.628;2022-09-13T14:54:55;101204;;;16.18;51.11
70198;BME280;57582;-34.876;138.628;2022-09-13T14:57:57;101203;;;16.20;51.00
70198;BME280;57582;-34.876;138.628;2022-09-13T15:00:56;101185;;;16.29;50.89
70198;BME280;57582;-34.876;138.628;2022-09-13T15:03:54;101183;;;16.21;51.18
70198;BME280;57582;-34.876;138.628;2022-09-13T15:07:17;101188;;;16.18;51.21
70198;BME280;57582;-34.876;138.628;2022-09-13T15:09:55;101187;;;16.17;51.22
70198;BME280;57582;-34.876;138.628;2022-09-13T15:15:54;101185;;;16.18;51.04
70198;BME280;57582;-34.876;138.628;2022-09-13T15:22:03;101169;;;16.23;50.93
70198;BME280;57582;-34.876;138.628;2022-09-13T15:24:54;101161;;;16.31;50.75
70198;BME280;57582;-34.876;138.628;2022-09-13T15:27:54;101155;;;16.37;50.49
70198;BME280;57582;-34.876;138.628;2022-09-13T15:30:53;101162;;;16.34;50.55
70198;BME280;57582;-34.876;138.628;2022-09-13T15:40:12;101160;;;16.34;50.48
70198;BME280;57582;-34.876;138.628;2022-09-13T15:42:53;101165;;;16.37;50.58
70198;BME280;57582;-34.876;138.628;2022-09-13T15:45:56;101166;;;16.31;50.81
70198;BME280;57582;-34.876;138.628;2022-09-13T15:48:54;101155;;;16.34;50.53
70198;BME280;57582;-34.876;138.628;2022-09-13T15:51:54;101141;;;16.34;50.63
70198;BME280;57582;-34.876;138.628;2022-09-13T15:54:53;101135;;;16.35;50.51
70198;BME280;57582;-34.876;138.628;2022-09-13T15:57:54;101126;;;16.33;50.53
70198;BME280;57582;-34.876;138.628;2022-09-13T16:00:53;101131;;;16.34;50.55
70198;BME280;57582;-34.876;138.628;2022-09-13T16:03:54;101131;;;16.36;50.60
70198;BME280;57582;-34.876;138.628;2022-09-13T16:06:53;101129;;;16.35;50.54
70198;BME280;57582;-34.876;138.628;2022-09-13T16:09:54;101118;;;16.38;50.52
70198;BME280;57582;-34.876;138.628;2022-09-13T16:12:53;101127;;;16.35;50.53
70198;BME280;57582;-34.876;138.628;2022-09-13T16:15:54;101110;;;16.33;50.46
70198;BME280;57582;-34.876;138.628;2022-09-13T16:18:53;101106;;;16.31;50.58
70198;BME280;57582;-34.876;138.628;2022-09-13T16:21:54;101100;;;16.29;50.69
70198;BME280;57582;-34.876;138.628;2022-09-13T16:24:53;101105;;;16.24;50.74
70198;BME280;57582;-34.876;138.628;2022-09-13T16:27:53;101087;;;16.24;50.73
70198;BME280;57582;-34.876;138.628;2022-09-13T16:30:53;101076;;;16.26;50.69
70198;BME280;57582;-34.876;138.628;2022-09-13T16:33:53;101077;;;16.21;50.78
70198;BME280;57582;-34.876;138.628;2022-09-13T16:36:53;101069;;;16.18;50.96
70198;BME280;57582;-34.876;138.628;2022-09-13T16:39:56;101062;;;16.16;51.00
70198;BME280;57582;-34.876;138.628;2022-09-13T16:42:53;101057;;;16.22;50.71
70198;BME280;57582;-34.876;138.628;2022-09-13T16:45:53;101044;;;16.20;50.67
70198;BME280;57582;-34.876;138.628;2022-09-13T16:48:54;101044;;;16.24;50.60
70198;BME280;57582;-34.876;138.628;2022-09-13T16:51:54;101034;;;16.20;50.51
70198;BME280;57582;-34.876;138.628;2022-09-13T16:54:53;101040;;;16.24;50.53
70198;BME280;57582;-34.876;138.628;2022-09-13T16:57:53;101029;;;16.24;50.38
70198;BME280;57582;-34.876;138.628;2022-09-13T17:00:53;101027;;;16.29;50.22
70198;BME280;57582;-34.876;138.628;2022-09-13T17:03:54;101023;;;16.25;50.21
70198;BME280;57582;-34.876;138.628;2022-09-13T17:06:53;101020;;;16.25;50.24
70198;BME280;57582;-34.876;138.628;2022-09-13T17:09:54;101010;;;16.22;50.24
70198;BME280;57582;-34.876;138.628;2022-09-13T17:12:53;101010;;;16.22;50.21
70198;BME280;57582;-34.876;138.628;2022-09-13T17:15:53;100999;;;16.25;50.10
70198;BME280;57582;-34.876;138.628;2022-09-13T17:18:54;100993;;;16.23;50.18
70198;BME280;57582;-34.876;138.628;2022-09-13T17:21:53;100996;;;16.28;50.01
70198;BME280;57582;-34.876;138.628;2022-09-13T17:24:53;100978;;;16.24;50.20
70198;BME280;57582;-34.876;138.628;2022-09-13T17:27:54;100964;;;16.20;50.56
70198;BME280;57582;-34.876;138.628;2022-09-13T17:30:53;100966;;;16.15;50.54
70198;BME280;57582;-34.876;138.628;2022-09-13T17:33:54;100967;;;16.12;50.59
70198;BME280;57582;-34.876;138.628;2022-09-13T17:36:53;100964;;;16.15;50.45
70198;BME280;57582;-34.876;138.628;2022-09-13T17:39:54;100946;;;16.13;50.32
70198;BME280;57582;-34.876;138.628;2022-09-13T17:42:53;100942;;;16.17;50.27
70198;BME280;57582;-34.876;138.628;2022-09-13T17:45:54;100938;;;16.15;50.21
70198;BME280;57582;-34.876;138.628;2022-09-13T17:48:53;100931;;;16.17;50.26
70198;BME280;57582;-34.876;138.628;2022-09-13T17:51:54;100942;;;16.19;50.20
70198;BME280;57582;-34.876;138.628;2022-09-13T17:54:53;100944;;;16.18;50.05
70198;BME280;57582;-34.876;138.628;2022-09-13T17:57:54;100920;;;16.17;49.97
70198;BME280;57582;-34.876;138.628;2022-09-13T18:01:09;100926;;;16.16;50.14
70198;BME280;57582;-34.876;138.628;2022-09-13T18:03:54;100915;;;16.17;49.84
70198;BME280;57582;-34.876;138.628;2022-09-13T18:06:53;100913;;;16.16;49.97
70198;BME280;57582;-34.876;138.628;2022-09-13T18:09:54;100898;;;16.17;49.83
70198;BME280;57582;-34.876;138.628;2022-09-13T18:12:53;100896;;;16.23;49.60
70198;BME280;57582;-34.876;138.628;2022-09-13T18:15:58;100886;;;16.18;49.48
70198;BME280;57582;-34.876;138.628;2022-09-13T18:18:53;100888;;;16.22;49.42
70198;BME280;57582;-34.876;138.628;2022-09-13T18:21:54;100891;;;16.17;49.44
70198;BME280;57582;-34.876;138.628;2022-09-13T18:24:53;100879;;;16.21;49.32
70198;BME280;57582;-34.876;138.628;2022-09-13T18:27:54;100880;;;16.16;49.30
70198;BME280;57582;-34.876;138.628;2022-09-13T18:30:54;100869;;;16.16;49.18